createdAt,value
2022-10-21T00:00:31.867Z,3.50
2022-10-21T00:05:26.347Z,3.50
2022-10-21T00:07:53.213Z,3.50
2022-10-21T00:10:20.327Z,3.40
2022-10-21T00:12:47.175Z,3.30
2022-10-21T00:15:14.173Z,3.30
2022-10-21T00:17:43.220Z,3.10
2022-10-21T00:20:12.643Z,3.00
2022-10-21T00:22:40.740Z,3.40
2022-10-21T00:25:08.236Z,3.30
2022-10-21T00:27:35.392Z,3.30
2022-10-21T00:30:03.522Z,3.20
2022-10-21T00:32:30.897Z,3.10
2022-10-21T00:34:57.762Z,3.00
2022-10-21T00:37:24.743Z,3.10
2022-10-21T00:39:52.801Z,3.20
2022-10-21T00:42:22.052Z,3.20
2022-10-21T00:45:07.029Z,3.10
2022-10-21T00:47:55.848Z,3.20
2022-10-21T00:50:28.878Z,3.30
2022-10-21T00:52:57.632Z,3.10
2022-10-21T00:55:27.529Z,3.20
2022-10-21T00:57:55.735Z,3.20
2022-10-21T01:00:22.846Z,3.10
2022-10-21T01:02:49.804Z,3.10
2022-10-21T01:05:18.037Z,3.10
2022-10-21T01:07:47.953Z,3.20
2022-10-21T01:10:15.498Z,3.20
2022-10-21T01:12:48.326Z,3.00
2022-10-21T01:15:36.149Z,3.20
2022-10-21T01:18:12.212Z,3.40
2022-10-21T01:21:07.994Z,3.40
2022-10-21T01:23:52.685Z,3.30
2022-10-21T01:29:15.029Z,3.20
2022-10-21T01:34:18.313Z,3.30
2022-10-21T01:37:03.789Z,3.30
2022-10-21T01:40:02.605Z,3.20
2022-10-21T01:42:47.785Z,3.20
2022-10-21T01:45:28.981Z,3.00
2022-10-21T01:48:07.464Z,2.90
2022-10-21T01:50:41.891Z,3.10
2022-10-21T01:53:12.550Z,3.00
2022-10-21T01:55:41.878Z,3.10
2022-10-21T01:58:35.891Z,3.00
2022-10-21T02:01:04.834Z,3.10
2022-10-21T02:03:36.236Z,2.90
2022-10-21T02:06:03.805Z,3.00
2022-10-21T02:08:30.974Z,3.00
2022-10-21T02:11:01.440Z,2.80
2022-10-21T02:13:35.827Z,2.70
2022-10-21T02:16:06.677Z,2.70
2022-10-21T02:21:05.995Z,2.80
2022-10-21T02:23:54.534Z,2.80
2022-10-21T02:26:23.794Z,2.80
2022-10-21T02:28:52.740Z,2.70
2022-10-21T02:31:22.313Z,2.80
2022-10-21T02:33:59.397Z,2.80
2022-10-21T02:36:35.570Z,2.60
2022-10-21T02:39:13.823Z,2.70
2022-10-21T02:41:42.109Z,2.70
2022-10-21T02:44:09.480Z,2.80
2022-10-21T02:46:48.042Z,2.90
2022-10-21T02:49:14.893Z,2.90
2022-10-21T02:51:42.824Z,2.90
2022-10-21T02:54:09.680Z,2.80
2022-10-21T02:56:36.509Z,2.70
2022-10-21T02:59:03.388Z,2.60
2022-10-21T03:03:57.816Z,2.70
2022-10-21T03:06:24.689Z,2.70
2022-10-21T03:08:51.574Z,2.70
2022-10-21T03:11:18.471Z,2.70
2022-10-21T03:16:12.592Z,2.60
2022-10-21T03:18:39.504Z,2.50
2022-10-21T03:21:06.435Z,2.60
2022-10-21T03:23:33.703Z,2.50
2022-10-21T03:26:00.502Z,2.50
2022-10-21T03:28:27.950Z,2.50
2022-10-21T03:33:22.626Z,2.50
2022-10-21T03:35:49.457Z,2.50
2022-10-21T03:38:16.316Z,2.50
2022-10-21T03:40:43.200Z,2.40
2022-10-21T03:43:10.052Z,2.40
2022-10-21T03:50:31.464Z,2.40
2022-10-21T03:52:59.873Z,2.30
2022-10-21T03:55:27.442Z,2.40
2022-10-21T03:57:54.422Z,2.40
2022-10-21T04:00:21.392Z,2.50
2022-10-21T04:02:48.537Z,2.40
2022-10-21T04:07:43.390Z,2.30
2022-10-21T04:10:11.313Z,2.40
2022-10-21T04:15:07.339Z,2.40
2022-10-21T04:17:34.237Z,2.30
2022-10-21T04:20:01.080Z,2.30
2022-10-21T04:22:27.946Z,2.20
2022-10-21T04:29:49.294Z,2.10
2022-10-21T04:34:44.951Z,2.30
2022-10-21T04:37:12.756Z,2.20
2022-10-21T04:39:39.610Z,2.20
2022-10-21T04:49:28.151Z,2.10
2022-10-21T04:51:55.040Z,2.00
2022-10-21T04:54:21.931Z,2.10
2022-10-21T04:56:48.842Z,2.10
2022-10-21T04:59:15.737Z,2.20
2022-10-21T05:01:42.576Z,2.10
2022-10-21T05:04:09.436Z,2.10
2022-10-21T05:09:04.161Z,2.10
2022-10-21T05:11:31.219Z,2.10
2022-10-21T05:16:25.747Z,2.10
2022-10-21T05:18:52.613Z,2.20
2022-10-21T05:26:13.936Z,2.60
2022-10-21T05:36:07.841Z,3.20
2022-10-21T05:38:34.930Z,3.00
2022-10-21T05:41:01.870Z,3.90
2022-10-21T05:43:28.744Z,3.50
2022-10-21T05:45:55.691Z,3.70
2022-10-21T05:48:22.792Z,3.50
2022-10-21T05:50:53.059Z,3.70
2022-10-21T05:53:20.339Z,3.80
2022-10-21T05:55:58.507Z,3.70
2022-10-21T05:58:26.217Z,3.80
2022-10-21T06:03:30.116Z,4.30
2022-10-21T06:05:58.561Z,4.30
2022-10-21T06:08:26.691Z,4.60
2022-10-21T06:11:11.128Z,5.00
2022-10-21T06:13:38.350Z,5.30
2022-10-21T06:16:07.069Z,5.60
2022-10-21T06:18:34.262Z,5.80
2022-10-21T06:21:01.390Z,6.00
2022-10-21T06:26:04.070Z,6.40
2022-10-21T06:28:34.068Z,6.30
2022-10-21T06:31:01.241Z,6.10
2022-10-21T06:35:55.868Z,5.60
2022-10-21T06:38:23.520Z,6.10
2022-10-21T06:40:50.447Z,6.50
2022-10-21T06:43:17.476Z,6.90
2022-10-21T06:45:44.784Z,6.50
2022-10-21T06:48:13.621Z,7.20
2022-10-21T06:55:35.724Z,8.40
2022-10-21T07:03:01.919Z,8.50
2022-10-21T07:05:28.766Z,7.70
2022-10-21T07:07:55.629Z,8.10
2022-10-21T07:12:49.858Z,8.70
2022-10-21T07:15:16.731Z,9.20
2022-10-21T07:17:43.604Z,9.60
2022-10-21T07:20:10.677Z,10.10
2022-10-21T07:22:37.584Z,10.50
2022-10-21T07:25:04.865Z,10.60
2022-10-21T07:29:58.952Z,11.00
2022-10-21T07:32:26.039Z,11.90
2022-10-21T07:39:47.386Z,11.00
2022-10-21T07:42:14.252Z,10.70
2022-10-21T07:47:08.392Z,10.70
2022-10-21T07:49:35.345Z,10.90
2022-10-21T07:52:02.240Z,10.70
2022-10-21T07:54:29.176Z,10.20
2022-10-21T07:56:56.041Z,10.70
2022-10-21T07:59:23.629Z,10.40
2022-10-21T08:01:52.657Z,10.50
2022-10-21T08:04:22.215Z,11.00
2022-10-21T08:06:49.729Z,11.40
2022-10-21T08:09:17.414Z,11.80
2022-10-21T08:11:44.940Z,11.50
2022-10-21T08:14:12.181Z,11.80
2022-10-21T08:16:40.172Z,11.30
2022-10-21T08:19:07.888Z,11.90
2022-10-21T08:21:36.402Z,12.00
2022-10-21T08:24:04.519Z,12.00
2022-10-21T08:26:31.750Z,12.20
2022-10-21T08:31:31.756Z,12.70
2022-10-21T08:33:59.438Z,12.30
2022-10-21T08:36:27.107Z,12.40
2022-10-21T08:38:55.059Z,12.10
2022-10-21T08:41:30.933Z,12.60
2022-10-21T08:44:02.897Z,12.40
2022-10-21T08:46:42.360Z,12.70
2022-10-21T08:49:15.843Z,13.40
2022-10-21T08:51:50.594Z,13.50
2022-10-21T08:54:47.010Z,13.50
2022-10-21T08:57:14.381Z,13.40
2022-10-21T08:59:44.453Z,13.30
2022-10-21T09:02:43.419Z,13.40
2022-10-21T09:06:07.656Z,13.70
2022-10-21T09:08:56.613Z,13.90
2022-10-21T09:12:10.632Z,14.20
2022-10-21T09:15:08.833Z,13.90
2022-10-21T09:17:52.655Z,13.70
2022-10-21T09:20:46.446Z,13.50
2022-10-21T09:23:47.156Z,13.40
2022-10-21T09:26:42.023Z,13.00
2022-10-21T09:29:29.493Z,13.10
2022-10-21T09:32:08.773Z,12.80
2022-10-21T09:34:50.509Z,12.20
2022-10-21T09:37:33.122Z,11.80
2022-10-21T09:40:25.185Z,11.60
2022-10-21T09:42:58.937Z,11.60
2022-10-21T09:45:39.159Z,11.70
2022-10-21T09:48:18.251Z,12.00
2022-10-21T09:50:52.333Z,12.20
2022-10-21T09:53:37.570Z,12.90
2022-10-21T09:56:31.836Z,13.30
2022-10-21T09:59:07.774Z,14.10
2022-10-21T10:01:36.749Z,14.80
2022-10-21T10:04:24.172Z,14.40
2022-10-21T10:06:51.405Z,15.00
2022-10-21T10:09:28.996Z,15.10
2022-10-21T10:12:01.422Z,14.80
2022-10-21T10:14:35.883Z,14.90
2022-10-21T10:17:34.075Z,15.30
2022-10-21T10:20:04.177Z,15.20
2022-10-21T10:22:41.720Z,15.50
2022-10-21T10:25:14.905Z,15.70
2022-10-21T10:28:01.277Z,15.10
2022-10-21T10:30:37.886Z,15.40
2022-10-21T10:33:15.367Z,15.20
2022-10-21T10:35:51.594Z,14.80
2022-10-21T10:38:33.131Z,14.00
2022-10-21T10:41:09.075Z,13.70
2022-10-21T10:43:49.409Z,13.30
2022-10-21T10:46:30.476Z,13.00
2022-10-21T10:49:04.354Z,12.60
2022-10-21T10:51:34.364Z,13.00
2022-10-21T10:54:17.623Z,13.20
2022-10-21T10:56:53.967Z,13.40
2022-10-21T10:59:36.698Z,13.20
2022-10-21T11:02:09.790Z,12.80
2022-10-21T11:04:48.642Z,12.30
2022-10-21T11:07:31.110Z,12.10
2022-10-21T11:10:04.517Z,12.20
2022-10-21T11:12:32.656Z,12.40
2022-10-21T11:15:00.304Z,12.50
2022-10-21T11:17:37.959Z,12.60
2022-10-21T11:20:24.469Z,12.60
2022-10-21T11:23:12.879Z,12.50
2022-10-21T11:25:44.687Z,12.80
2022-10-21T11:28:26.754Z,13.00
2022-10-21T11:33:56.903Z,13.20
2022-10-21T11:36:52.426Z,13.10
2022-10-21T11:39:37.506Z,12.80
2022-10-21T11:42:12.372Z,13.40
2022-10-21T11:44:45.243Z,13.30
2022-10-21T11:47:53.023Z,13.40
2022-10-21T11:50:30.616Z,13.40
2022-10-21T11:53:11.908Z,13.40
2022-10-21T11:56:10.328Z,13.40
2022-10-21T11:58:43.541Z,13.50
2022-10-21T12:01:15.606Z,13.50
2022-10-21T12:04:28.815Z,14.30
2022-10-21T12:07:01.239Z,14.80
2022-10-21T12:09:55.071Z,14.60
2022-10-21T12:12:30.507Z,14.20
2022-10-21T12:15:02.379Z,14.00
2022-10-21T12:17:34.102Z,13.70
2022-10-21T12:20:06.524Z,13.70
2022-10-21T12:22:34.565Z,14.00
2022-10-21T12:25:13.439Z,14.60
2022-10-21T12:27:54.536Z,15.00
2022-10-21T12:30:40.864Z,14.80
2022-10-21T12:33:16.182Z,14.80
2022-10-21T12:35:50.538Z,14.80
2022-10-21T12:38:53.976Z,14.80
2022-10-21T12:41:35.628Z,14.60
2022-10-21T12:44:02.866Z,14.50
2022-10-21T12:46:48.097Z,14.40
2022-10-21T12:49:26.986Z,13.90
2022-10-21T12:52:02.903Z,13.80
2022-10-21T12:54:54.811Z,13.90
2022-10-21T12:57:33.912Z,13.90
2022-10-21T13:00:36.505Z,14.00
2022-10-21T13:03:34.825Z,13.80
2022-10-21T13:06:04.594Z,13.60
2022-10-21T13:08:39.697Z,13.30
2022-10-21T13:13:40.991Z,13.00
2022-10-21T13:16:19.246Z,13.10
2022-10-21T13:18:58.797Z,13.10
2022-10-21T13:21:29.998Z,13.10
2022-10-21T13:24:14.768Z,12.90
2022-10-21T13:26:47.359Z,12.80
2022-10-21T13:34:30.227Z,12.50
2022-10-21T13:36:58.103Z,12.30
2022-10-21T13:39:31.286Z,12.40
2022-10-21T13:42:16.726Z,12.50
2022-10-21T13:44:57.197Z,12.40
2022-10-21T13:47:35.119Z,12.40
2022-10-21T13:50:15.938Z,12.30
2022-10-21T13:52:44.512Z,12.30
2022-10-21T13:55:22.521Z,12.20
2022-10-21T13:57:51.354Z,12.30
2022-10-21T14:00:30.720Z,12.20
2022-10-21T14:03:03.974Z,12.30
2022-10-21T14:05:51.419Z,12.30
2022-10-21T14:08:42.665Z,12.00
2022-10-21T14:11:21.019Z,12.10
2022-10-21T14:13:49.845Z,12.00
2022-10-21T14:16:34.095Z,11.90
2022-10-21T14:19:05.516Z,11.90
2022-10-21T14:21:37.441Z,11.80
2022-10-21T14:24:05.652Z,11.70
2022-10-21T14:26:33.377Z,11.70
2022-10-21T14:29:01.733Z,11.70
2022-10-21T14:31:29.513Z,11.80
2022-10-21T14:33:56.548Z,11.70
2022-10-21T14:36:26.125Z,11.60
2022-10-21T14:39:03.223Z,11.60
2022-10-21T14:41:35.946Z,11.60
2022-10-21T14:44:17.260Z,11.60
2022-10-21T14:46:47.129Z,11.50
2022-10-21T14:49:44.483Z,11.40
2022-10-21T14:52:42.945Z,11.50
2022-10-21T14:55:14.630Z,11.40
2022-10-21T14:57:47.621Z,11.50
2022-10-21T15:00:26.378Z,11.40
2022-10-21T15:02:57.453Z,11.40
2022-10-21T15:05:30.175Z,11.40
2022-10-21T15:08:22.789Z,11.20
2022-10-21T15:11:04.717Z,11.20
2022-10-21T15:13:33.207Z,11.30
2022-10-21T15:16:01.769Z,11.10
2022-10-21T15:18:34.356Z,11.20
2022-10-21T15:21:10.024Z,11.20
2022-10-21T15:23:42.776Z,11.10
2022-10-21T15:26:18.651Z,11.10
2022-10-21T15:28:45.937Z,11.20
2022-10-21T15:31:25.002Z,11.10
2022-10-21T15:33:56.222Z,11.00
2022-10-21T15:36:24.494Z,11.00
2022-10-21T15:38:51.372Z,10.90
2022-10-21T15:41:26.111Z,10.90
2022-10-21T15:44:00.843Z,11.00
2022-10-21T15:46:29.722Z,11.00
2022-10-21T15:48:58.473Z,11.00
2022-10-21T15:53:52.580Z,10.80
2022-10-21T15:56:19.932Z,10.80
2022-10-21T15:58:46.824Z,10.50
2022-10-21T16:01:16.930Z,10.80
2022-10-21T16:03:45.021Z,10.90
2022-10-21T16:06:16.467Z,10.90
2022-10-21T16:11:21.709Z,10.90
2022-10-21T16:16:25.631Z,10.60
2022-10-21T16:18:53.351Z,11.20
2022-10-21T16:21:22.078Z,10.30
2022-10-21T16:23:49.375Z,10.80
2022-10-21T16:26:25.765Z,10.80
2022-10-21T16:28:54.690Z,10.50
2022-10-21T16:33:49.000Z,10.40
2022-10-21T16:36:18.489Z,10.60
2022-10-21T16:38:47.308Z,10.40
2022-10-21T16:41:16.875Z,10.40
2022-10-21T16:43:44.585Z,10.20
2022-10-21T16:46:33.311Z,10.20
2022-10-21T16:49:00.864Z,10.40
2022-10-21T16:51:29.559Z,10.10
2022-10-21T16:53:56.604Z,10.60
2022-10-21T16:56:23.723Z,10.90
2022-10-21T16:58:51.578Z,10.00
2022-10-21T17:01:23.791Z,10.40
2022-10-21T17:03:51.801Z,10.30
2022-10-21T17:06:21.301Z,10.40
2022-10-21T17:11:36.887Z,10.20
2022-10-21T17:14:06.601Z,10.40
2022-10-21T17:16:33.546Z,10.50
2022-10-21T17:19:00.394Z,10.40
2022-10-21T17:21:29.668Z,10.30
2022-10-21T17:23:58.288Z,10.20
2022-10-21T17:28:53.798Z,10.10
2022-10-21T17:31:23.019Z,10.20
2022-10-21T17:33:51.209Z,10.10
2022-10-21T17:36:19.177Z,10.30
2022-10-21T17:38:46.994Z,10.30
2022-10-21T17:41:16.513Z,10.20
2022-10-21T17:43:43.504Z,10.30
2022-10-21T17:46:17.436Z,6.30
2022-10-21T17:51:12.005Z,10.20
2022-10-21T17:53:38.859Z,9.90
2022-10-21T17:56:08.158Z,10.00
2022-10-21T17:58:35.479Z,9.80
2022-10-21T18:01:07.874Z,9.70
2022-10-21T18:03:34.881Z,9.90
2022-10-21T18:06:09.161Z,9.70
2022-10-21T18:08:37.026Z,9.50
2022-10-21T18:11:07.977Z,9.80
2022-10-21T18:13:35.184Z,9.80
2022-10-21T18:16:04.631Z,9.80
2022-10-21T18:18:31.639Z,9.80
2022-10-21T18:21:06.479Z,9.70
2022-10-21T18:23:34.078Z,9.70
2022-10-21T18:26:11.407Z,9.70
2022-10-21T18:28:38.442Z,9.70
2022-10-21T18:31:06.495Z,9.70
2022-10-21T18:33:34.150Z,9.60
2022-10-21T18:36:12.047Z,9.60
2022-10-21T18:38:39.264Z,9.70
2022-10-21T18:41:19.517Z,9.60
2022-10-21T18:43:48.428Z,9.70
2022-10-21T18:46:15.642Z,9.60
2022-10-21T18:48:42.484Z,9.50
2022-10-21T18:51:11.276Z,9.40
2022-10-21T18:53:39.300Z,9.50
2022-10-21T18:56:13.617Z,9.40
2022-10-21T18:58:41.120Z,9.40
2022-10-21T19:01:09.456Z,9.50
2022-10-21T19:03:36.961Z,9.40
2022-10-21T19:06:28.503Z,9.40
2022-10-21T19:08:56.260Z,9.40
2022-10-21T19:11:23.220Z,9.30
2022-10-21T19:13:50.055Z,9.50
2022-10-21T19:18:44.182Z,9.30
2022-10-21T19:21:12.999Z,9.30
2022-10-21T19:23:39.908Z,9.30
2022-10-21T19:26:08.648Z,9.30
2022-10-21T19:28:36.309Z,9.30
2022-10-21T19:31:03.609Z,9.40
2022-10-21T19:33:31.073Z,9.20
2022-10-21T19:36:02.570Z,9.20
2022-10-21T19:41:13.634Z,9.30
2022-10-21T19:46:08.775Z,9.30
2022-10-21T19:48:37.077Z,9.20
2022-10-21T19:51:05.023Z,9.10
2022-10-21T19:53:35.042Z,9.20
2022-10-21T19:56:03.810Z,8.90
2022-10-21T19:58:31.980Z,9.10
2022-10-21T20:01:09.315Z,8.90
2022-10-21T20:03:37.649Z,9.10
2022-10-21T20:06:06.514Z,9.10
2022-10-21T20:08:34.493Z,9.10
2022-10-21T20:11:03.167Z,9.00
2022-10-21T20:15:58.449Z,9.20
2022-10-21T20:18:27.371Z,9.00
2022-10-21T20:20:55.861Z,9.10
2022-10-21T20:23:24.233Z,9.10
2022-10-21T20:25:54.769Z,9.20
2022-10-21T20:28:22.044Z,9.10
2022-10-21T20:31:08.877Z,9.10
2022-10-21T20:33:39.160Z,9.20
2022-10-21T20:36:15.437Z,9.20
2022-10-21T20:38:43.035Z,9.10
2022-10-21T20:41:14.127Z,9.10
2022-10-21T20:43:42.084Z,9.10
2022-10-21T20:46:11.574Z,9.10
2022-10-21T20:48:43.732Z,9.00
2022-10-21T20:51:13.693Z,9.00
2022-10-21T20:58:48.365Z,9.40
2022-10-21T21:01:22.371Z,9.20
2022-10-21T21:03:50.532Z,9.20
2022-10-21T21:06:18.036Z,9.20
2022-10-21T21:11:33.032Z,9.30
2022-10-21T21:13:59.882Z,9.60
2022-10-21T21:16:26.880Z,9.10
2022-10-21T21:18:56.337Z,9.20
2022-10-21T21:21:25.633Z,9.40
2022-10-21T21:23:53.376Z,9.30
2022-10-21T21:26:26.563Z,9.40
2022-10-21T21:28:53.764Z,9.30
2022-10-21T21:31:23.162Z,9.40
2022-10-21T21:33:50.559Z,9.40
2022-10-21T21:36:19.096Z,9.40
2022-10-21T21:38:46.571Z,9.50
2022-10-21T21:41:16.676Z,9.40
2022-10-21T21:43:48.254Z,9.60
2022-10-21T21:46:23.787Z,9.50
2022-10-21T21:49:02.385Z,9.30
2022-10-21T21:51:31.448Z,9.40
2022-10-21T21:56:26.523Z,9.70
2022-10-21T21:58:55.831Z,9.40
2022-10-21T22:01:25.500Z,9.30
2022-10-21T22:03:53.289Z,9.20
2022-10-21T22:06:22.691Z,9.50
2022-10-21T22:08:50.734Z,9.50
2022-10-21T22:11:21.795Z,9.50
2022-10-21T22:13:49.420Z,9.50
2022-10-21T22:16:17.783Z,9.60
2022-10-21T22:18:44.725Z,9.60
2022-10-21T22:21:14.940Z,9.40
2022-10-21T22:23:42.423Z,9.20
2022-10-21T22:26:10.795Z,9.40
2022-10-21T22:28:38.303Z,9.40
2022-10-21T22:31:08.013Z,9.60
2022-10-21T22:33:35.355Z,9.20
2022-10-21T22:36:03.216Z,9.90
2022-10-21T22:38:30.074Z,9.40
2022-10-21T22:40:58.760Z,9.40
2022-10-21T22:43:26.628Z,9.40
2022-10-21T22:46:01.111Z,9.40
2022-10-21T22:48:40.956Z,8.90
2022-10-21T22:53:36.670Z,9.20
2022-10-21T22:56:04.271Z,9.10
2022-10-21T22:58:31.478Z,8.90
2022-10-21T23:00:58.353Z,9.80
2022-10-21T23:03:25.608Z,9.00
2022-10-21T23:08:19.784Z,9.20
2022-10-21T23:10:49.939Z,9.00
2022-10-21T23:13:17.336Z,8.60
2022-10-21T23:15:46.815Z,9.10
2022-10-21T23:18:14.467Z,8.80
2022-10-21T23:20:41.469Z,8.90
2022-10-21T23:25:35.915Z,8.70
2022-10-21T23:28:03.860Z,8.80
2022-10-21T23:30:30.782Z,8.90
2022-10-21T23:32:57.627Z,8.70
2022-10-21T23:35:24.517Z,8.60
2022-10-21T23:42:46.044Z,8.90
2022-10-21T23:45:13.276Z,8.90
2022-10-21T23:47:40.575Z,8.30
2022-10-21T23:50:08.778Z,8.50
2022-10-21T23:52:36.426Z,8.30
2022-10-21T23:55:04.801Z,8.30
2022-10-21T23:57:31.706Z,8.20
2022-10-21T23:59:58.563Z,8.60
